Time;durP1;ratioP1;P1;durP2;ratioP2;P2;SDS_P1;SDS_P2;PMS_P1;PMS_P2;Temp;Humidity;BMP_temperature;BMP_pressure;BME280_temperature;BME280_humidity;BME280_pressure;Samples;Min_cycle;Max_cycle;Signal;HPM_P1;HPM_P2
2023/08/09 00:02:12;;;;;;;2.27;1.97;;;;;15.50;100677.00;;;;5021560;28;20229;-71
2023/08/09 00:04:58;;;;;;;2.70;1.90;;;;;15.40;100674.00;;;;5027534;28;20233;-69
2023/08/09 00:07:45;;;;;;;3.63;2.13;;;;;15.50;100680.00;;;;5027925;28;20451;-68
2023/08/09 00:10:32;;;;;;;2.03;1.80;;;;;15.50;100681.00;;;;5026249;28;20243;-70
2023/08/09 00:13:19;;;;;;;2.67;1.70;;;;;15.40;100677.00;;;;5027404;28;20724;-69
2023/08/09 00:16:07;;;;;;;2.57;2.07;;;;;15.40;100674.00;;;;5020144;28;20741;-69
2023/08/09 00:18:53;;;;;;;3.03;1.90;;;;;15.40;100661.00;;;;5024729;28;20228;-69
2023/08/09 00:21:39;;;;;;;3.03;2.07;;;;;15.40;100668.00;;;;5019570;28;20733;-68
2023/08/09 00:24:27;;;;;;;2.23;2.03;;;;;15.50;100661.00;;;;5025352;28;20296;-70
2023/08/09 00:27:13;;;;;;;2.60;1.90;;;;;15.40;100661.00;;;;5026865;28;20304;-70
2023/08/09 00:30:00;;;;;;;3.10;1.97;;;;;15.40;100673.00;;;;5025378;28;20349;-70
2023/08/09 00:32:48;;;;;;;2.00;1.73;;;;;15.40;100682.00;;;;5022996;28;20251;-70
2023/08/09 00:35:34;;;;;;;2.50;1.93;;;;;15.50;100685.00;;;;5015758;28;20239;-68
2023/08/09 00:38:21;;;;;;;2.20;2.00;;;;;15.50;100678.00;;;;5022994;28;20228;-70
2023/08/09 00:41:07;;;;;;;4.10;2.10;;;;;15.50;100689.00;;;;5016030;28;20888;-71
2023/08/09 00:43:54;;;;;;;4.23;2.13;;;;;15.50;100679.00;;;;5023945;28;20248;-70
2023/08/09 00:46:40;;;;;;;2.30;2.10;;;;;15.50;100681.00;;;;5018018;28;20230;-70
2023/08/09 00:49:28;;;;;;;2.90;2.37;;;;;15.40;100680.00;;;;5027495;28;20776;-70
2023/08/09 00:52:14;;;;;;;3.70;2.17;;;;;15.30;100685.00;;;;5019718;28;20247;-69
2023/08/09 00:55:01;;;;;;;3.37;2.20;;;;;15.40;100676.00;;;;5025695;28;20238;-70
2023/08/09 00:57:49;;;;;;;2.90;2.30;;;;;15.40;100674.00;;;;5025178;28;20720;-69
2023/08/09 01:00:37;;;;;;;2.40;2.10;;;;;15.40;100674.00;;;;5022140;28;20231;-69
2023/08/09 01:03:24;;;;;;;3.03;2.30;;;;;15.40;100680.00;;;;5026674;28;20343;-69
2023/08/09 01:06:15;;;;;;;3.67;2.40;;;;;15.40;100692.00;;;;5031837;28;20359;-69
2023/08/09 01:09:08;;;;;;;4.60;2.30;;;;;15.40;100707.00;;;;5022321;28;20371;-70
2023/08/09 01:11:58;;;;;;;3.70;2.53;;;;;15.30;100693.00;;;;5025421;28;20230;-70
2023/08/09 01:14:51;;;;;;;2.63;2.37;;;;;15.30;100691.00;;;;5026549;28;20238;-69
2023/08/09 01:17:38;;;;;;;3.90;2.53;;;;;15.30;100696.00;;;;5022337;28;20236;-70
2023/08/09 01:20:26;;;;;;;2.73;2.20;;;;;15.30;100692.00;;;;5020484;28;20273;-69
2023/08/09 01:23:17;;;;;;;3.23;2.60;;;;;15.20;100698.00;;;;5023778;28;20231;-70
2023/08/09 01:26:06;;;;;;;2.70;2.30;;;;;15.20;100688.00;;;;5025833;28;20241;-68
2023/08/09 01:28:52;;;;;;;2.40;2.10;;;;;15.20;100690.00;;;;5025990;28;20250;-70
2023/08/09 01:31:38;;;;;;;2.20;2.00;;;;;15.10;100687.00;;;;5021380;28;20229;-69
2023/08/09 01:34:25;;;;;;;4.70;2.30;;;;;14.90;100692.00;;;;5023072;28;20357;-69
2023/08/09 01:37:17;;;;;;;2.40;2.00;;;;;14.90;100695.00;;;;5025204;28;20837;-68
2023/08/09 01:40:09;;;;;;;2.37;2.13;;;;;14.80;100699.00;;;;5025785;28;20249;-70
2023/08/09 01:42:58;;;;;;;15.20;2.90;;;;;14.70;100699.00;;;;5023418;28;20309;-69
2023/08/09 01:45:44;;;;;;;2.80;2.40;;;;;14.70;100706.00;;;;5024128;28;20240;-69
2023/08/09 01:48:31;;;;;;;2.80;2.20;;;;;14.70;100702.00;;;;5023999;28;20836;-69
2023/08/09 01:51:17;;;;;;;3.43;2.17;;;;;14.70;100703.00;;;;5024941;28;20243;-69
2023/08/09 01:54:04;;;;;;;3.40;2.57;;;;;14.80;100703.00;;;;5022732;28;20248;-69
2023/08/09 01:56:51;;;;;;;2.87;2.53;;;;;14.80;100706.00;;;;5022294;28;20259;-69
2023/08/09 01:59:38;;;;;;;3.43;2.30;;;;;14.80;100713.00;;;;5025284;28;20246;-69
2023/08/09 02:02:25;;;;;;;2.80;2.50;;;;;14.70;100712.00;;;;5019195;28;20740;-69
2023/08/09 02:05:12;;;;;;;3.37;2.90;;;;;14.70;100712.00;;;;5026728;28;20231;-69
2023/08/09 02:08:04;;;;;;;4.53;2.73;;;;;14.70;100710.00;;;;5021505;28;20749;-68
2023/08/09 02:10:50;;;;;;;4.60;3.13;;;;;14.80;100720.00;;;;5023351;28;20729;-69
2023/08/09 02:13:37;;;;;;;5.47;3.37;;;;;14.90;100728.00;;;;5018246;28;20239;-71
2023/08/09 02:16:25;;;;;;;4.77;3.40;;;;;14.90;100734.00;;;;5016596;28;20234;-69
2023/08/09 02:19:11;;;;;;;4.47;3.47;;;;;14.90;100729.00;;;;5023504;28;20419;-69
2023/08/09 02:21:58;;;;;;;6.47;3.87;;;;;15.00;100740.00;;;;5024521;28;20302;-70
2023/08/09 02:24:44;;;;;;;6.37;4.57;;;;;15.00;100736.00;;;;5024956;28;20247;-69
2023/08/09 02:27:31;;;;;;;11.00;5.00;;;;;15.10;100732.00;;;;5025706;28;20221;-68
2023/08/09 02:30:17;;;;;;;7.07;5.00;;;;;15.10;100735.00;;;;5024832;28;20716;-69
2023/08/09 02:33:05;;;;;;;6.27;4.60;;;;;15.20;100752.00;;;;5019669;28;20297;-70
2023/08/09 02:35:54;;;;;;;7.47;5.23;;;;;15.20;100752.00;;;;5023438;28;20237;-70
2023/08/09 02:38:41;;;;;;;8.77;5.67;;;;;15.10;100752.00;;;;5021455;28;20260;-70
2023/08/09 02:41:27;;;;;;;9.70;5.70;;;;;15.10;100754.00;;;;5015267;28;20233;-69
2023/08/09 02:44:14;;;;;;;8.13;5.83;;;;;15.20;100765.00;;;;5019065;28;20234;-69
2023/08/09 02:47:01;;;;;;;9.63;5.93;;;;;15.20;100763.00;;;;5019243;28;20318;-70
2023/08/09 02:49:49;;;;;;;7.87;5.80;;;;;15.20;100760.00;;;;5021757;28;20299;-70
2023/08/09 02:52:36;;;;;;;9.43;6.00;;;;;15.10;100766.00;;;;5013464;28;20290;-69
2023/08/09 02:55:22;;;;;;;9.00;6.30;;;;;15.10;100775.00;;;;5022972;28;20329;-69
2023/08/09 02:58:09;;;;;;;12.57;6.30;;;;;15.10;100773.00;;;;5020713;28;20240;-70
2023/08/09 03:00:56;;;;;;;10.87;6.80;;;;;15.10;100776.00;;;;5024479;28;20232;-69
2023/08/09 03:03:42;;;;;;;10.93;6.50;;;;;15.10;100774.00;;;;5012401;28;20710;-71
2023/08/09 03:06:30;;;;;;;10.93;6.60;;;;;15.10;100782.00;;;;5027836;28;20225;-71
2023/08/09 03:09:17;;;;;;;11.30;6.60;;;;;15.10;100780.00;;;;5021958;28;20726;-69
2023/08/09 03:12:04;;;;;;;9.00;6.50;;;;;15.10;100778.00;;;;5020082;28;20242;-70
2023/08/09 03:14:51;;;;;;;10.03;6.57;;;;;15.00;100775.00;;;;5018764;28;20248;-69
2023/08/09 03:17:38;;;;;;;10.40;6.90;;;;;15.10;100783.00;;;;5016123;28;20284;-69
2023/08/09 03:20:24;;;;;;;10.83;6.73;;;;;15.10;100787.00;;;;5014887;28;20240;-70
2023/08/09 03:23:13;;;;;;;10.40;6.70;;;;;15.10;100772.00;;;;5020750;28;20363;-69
2023/08/09 03:26:00;;;;;;;9.27;6.67;;;;;15.10;100782.00;;;;5021032;28;20274;-69
2023/08/09 03:28:47;;;;;;;9.70;6.77;;;;;15.10;100782.00;;;;5022533;28;20232;-69
2023/08/09 03:31:33;;;;;;;12.43;7.00;;;;;15.00;100781.00;;;;5015746;28;20230;-70
2023/08/09 03:34:20;;;;;;;10.17;6.77;;;;;15.10;100790.00;;;;5021379;28;20997;-68
2023/08/09 03:37:06;;;;;;;11.23;7.03;;;;;15.00;100787.00;;;;5020072;28;20255;-70
2023/08/09 03:39:54;;;;;;;10.27;6.83;;;;;15.00;100803.00;;;;5018318;28;20815;-69
2023/08/09 03:42:41;;;;;;;9.93;6.03;;;;;15.00;100800.00;;;;5019075;28;20901;-70
2023/08/09 03:45:27;;;;;;;9.23;6.73;;;;;15.00;100798.00;;;;5014782;28;20225;-69
2023/08/09 03:48:14;;;;;;;10.57;6.70;;;;;14.90;100797.00;;;;5019626;28;20260;-69
2023/08/09 03:51:00;;;;;;;17.00;7.03;;;;;14.90;100813.00;;;;5017692;28;20227;-68
2023/08/09 03:53:47;;;;;;;11.63;6.70;;;;;14.90;100806.00;;;;5015328;28;20290;-70
2023/08/09 03:56:35;;;;;;;12.23;7.00;;;;;14.90;100812.00;;;;5022775;28;20224;-70
2023/08/09 03:59:23;;;;;;;11.60;7.43;;;;;14.90;100817.00;;;;5024136;28;20370;-69
2023/08/09 04:02:09;;;;;;;10.17;7.13;;;;;14.90;100815.00;;;;5014178;28;20310;-70
2023/08/09 04:04:56;;;;;;;10.37;6.90;;;;;14.90;100820.00;;;;5023921;28;20240;-70
2023/08/09 04:07:43;;;;;;;9.50;6.30;;;;;14.80;100820.00;;;;5020905;28;20228;-70
2023/08/09 04:10:30;;;;;;;10.73;6.60;;;;;14.80;100844.00;;;;5025863;28;20251;-69
2023/08/09 04:13:17;;;;;;;10.17;7.27;;;;;14.80;100837.00;;;;5027149;28;20229;-69
2023/08/09 04:16:04;;;;;;;13.43;6.70;;;;;14.90;100844.00;;;;5027258;28;20239;-72
2023/08/09 04:18:51;;;;;;;10.17;6.57;;;;;14.90;100844.00;;;;5023491;28;20242;-70
2023/08/09 04:21:38;;;;;;;11.20;6.63;;;;;14.80;100846.00;;;;5026860;28;20279;-66
2023/08/09 04:24:24;;;;;;;12.57;6.17;;;;;14.80;100836.00;;;;5022539;28;20226;-70
2023/08/09 04:27:11;;;;;;;10.43;6.80;;;;;14.90;100838.00;;;;5027360;28;20299;-70
2023/08/09 04:30:00;;;;;;;11.53;7.00;;;;;14.90;100853.00;;;;5025773;28;20236;-69
2023/08/09 04:32:46;;;;;;;11.33;7.10;;;;;14.90;100851.00;;;;5024242;28;20238;-70
2023/08/09 04:35:34;;;;;;;13.57;7.63;;;;;14.90;100857.00;;;;5019992;28;20266;-69
2023/08/09 04:38:20;;;;;;;11.37;6.83;;;;;14.90;100851.00;;;;5025693;28;20283;-69
2023/08/09 04:41:07;;;;;;;12.30;6.93;;;;;14.90;100860.00;;;;5026759;28;20677;-69
2023/08/09 04:43:54;;;;;;;11.27;7.77;;;;;15.00;100853.00;;;;5026130;28;20236;-69
2023/08/09 04:46:42;;;;;;;12.80;7.70;;;;;14.90;100858.00;;;;5009186;28;20368;-70
2023/08/09 04:49:29;;;;;;;13.47;7.63;;;;;15.00;100863.00;;;;5026386;28;20247;-70
2023/08/09 04:52:17;;;;;;;11.20;7.27;;;;;15.00;100868.00;;;;5019811;28;20819;-68
2023/08/09 04:55:04;;;;;;;12.23;6.77;;;;;15.00;100860.00;;;;5027199;28;20301;-69
2023/08/09 04:57:50;;;;;;;12.83;7.60;;;;;15.10;100863.00;;;;5021097;28;20238;-69
2023/08/09 05:00:36;;;;;;;12.00;7.70;;;;;15.10;100869.00;;;;5025445;28;20225;-70
2023/08/09 05:03:25;;;;;;;12.03;7.70;;;;;15.20;100868.00;;;;5024820;28;20241;-69
2023/08/09 05:06:11;;;;;;;14.40;7.93;;;;;15.20;100871.00;;;;5023547;28;20373;-70
2023/08/09 05:08:58;;;;;;;14.30;8.83;;;;;15.20;100870.00;;;;5021892;28;20243;-69
2023/08/09 05:11:44;;;;;;;14.33;8.33;;;;;15.30;100874.00;;;;5024295;28;20227;-69
2023/08/09 05:14:31;;;;;;;14.37;8.60;;;;;15.20;100873.00;;;;5025611;28;20234;-70
2023/08/09 05:17:17;;;;;;;13.40;8.73;;;;;15.30;100883.00;;;;5025371;28;20234;-68
2023/08/09 05:20:07;;;;;;;20.93;9.20;;;;;15.30;100889.00;;;;5026983;28;20237;-67
2023/08/09 05:22:53;;;;;;;15.73;8.07;;;;;15.30;100881.00;;;;5025391;28;20764;-69
2023/08/09 05:25:39;;;;;;;18.53;9.23;;;;;15.30;100889.00;;;;5019213;28;20295;-69
2023/08/09 05:28:25;;;;;;;15.70;9.40;;;;;15.30;100900.00;;;;5025081;28;20234;-68
2023/08/09 05:31:12;;;;;;;16.40;9.33;;;;;15.40;100891.00;;;;5021767;28;20227;-69
2023/08/09 05:33:58;;;;;;;16.73;9.30;;;;;15.40;100897.00;;;;5025800;28;20789;-68
2023/08/09 05:36:46;;;;;;;15.30;9.10;;;;;15.50;100896.00;;;;5017067;28;20574;-70
2023/08/09 05:39:33;;;;;;;16.50;9.10;;;;;15.50;100901.00;;;;5026133;28;20290;-69
2023/08/09 05:42:19;;;;;;;17.10;10.17;;;;;15.60;100907.00;;;;5025523;28;20367;-70
2023/08/09 05:45:07;;;;;;;15.23;9.10;;;;;15.50;100898.00;;;;5024478;28;20231;-70
2023/08/09 05:47:53;;;;;;;15.87;9.17;;;;;15.50;100907.00;;;;5023278;28;20231;-69
2023/08/09 05:50:40;;;;;;;19.50;10.13;;;;;15.50;100917.00;;;;5021115;28;20233;-69
2023/08/09 05:53:28;;;;;;;17.20;9.60;;;;;15.60;100927.00;;;;5025974;28;20252;-68
2023/08/09 05:56:14;;;;;;;17.23;9.47;;;;;15.50;100932.00;;;;5022629;28;20819;-69
2023/08/09 05:59:01;;;;;;;19.23;9.20;;;;;15.50;100929.00;;;;5025606;28;20292;-69
2023/08/09 06:01:49;;;;;;;14.73;8.97;;;;;15.60;100924.00;;;;5022842;28;20225;-69
2023/08/09 06:04:35;;;;;;;16.53;9.70;;;;;15.60;100925.00;;;;5025830;28;20240;-69
2023/08/09 06:07:22;;;;;;;15.20;9.43;;;;;15.70;100928.00;;;;5023057;28;20256;-69
2023/08/09 06:10:10;;;;;;;13.53;8.87;;;;;15.80;100950.00;;;;5013636;28;20231;-70
2023/08/09 06:12:57;;;;;;;14.93;9.70;;;;;15.70;100944.00;;;;5025677;28;20722;-70
2023/08/09 06:15:45;;;;;;;16.53;9.27;;;;;15.80;100944.00;;;;5022164;28;20299;-69
2023/08/09 06:18:31;;;;;;;14.73;9.13;;;;;15.80;100947.00;;;;5021410;28;20605;-69
2023/08/09 06:21:18;;;;;;;16.43;9.63;;;;;15.80;100950.00;;;;5024831;28;20279;-69
2023/08/09 06:24:05;;;;;;;17.40;9.80;;;;;15.90;100951.00;;;;5020333;28;20250;-68
2023/08/09 06:26:52;;;;;;;16.97;10.03;;;;;15.80;100959.00;;;;5017170;28;20229;-69
2023/08/09 06:29:39;;;;;;;16.33;9.23;;;;;15.90;100960.00;;;;5024523;28;20621;-69
2023/08/09 06:32:26;;;;;;;16.73;9.20;;;;;15.90;100957.00;;;;5023630;28;20352;-68
2023/08/09 06:35:14;;;;;;;16.53;9.20;;;;;16.00;100969.00;;;;5021541;28;20953;-68
2023/08/09 06:38:00;;;;;;;15.30;9.33;;;;;16.00;100968.00;;;;5024673;28;20225;-69
2023/08/09 06:41:00;;;;;;;14.13;8.97;;;;;16.10;100978.00;;;;5017747;28;20233;-68
2023/08/09 06:43:48;;;;;;;16.53;9.40;;;;;16.10;100982.00;;;;5019178;28;20234;-68
2023/08/09 06:46:34;;;;;;;14.50;9.20;;;;;16.10;100971.00;;;;5024059;28;21042;-68
2023/08/09 06:49:21;;;;;;;13.27;8.40;;;;;16.10;100986.00;;;;5024563;28;20241;-68
2023/08/09 06:52:08;;;;;;;14.77;8.03;;;;;16.10;100985.00;;;;5020133;28;20832;-68
2023/08/09 06:54:54;;;;;;;13.43;8.53;;;;;16.20;100987.00;;;;5020692;28;20306;-68
2023/08/09 06:57:42;;;;;;;15.07;8.63;;;;;16.20;100993.00;;;;5024419;28;20225;-69
2023/08/09 07:00:30;;;;;;;13.43;8.27;;;;;16.30;100992.00;;;;5024767;28;20372;-69
2023/08/09 07:03:17;;;;;;;12.87;8.10;;;;;16.30;100991.00;;;;5021088;28;20228;-67
2023/08/09 07:06:04;;;;;;;13.83;8.77;;;;;16.30;100993.00;;;;5024895;28;20698;-68
2023/08/09 07:08:53;;;;;;;11.80;7.63;;;;;16.30;101000.00;;;;5018404;28;20587;-68
2023/08/09 07:11:39;;;;;;;10.90;7.93;;;;;16.40;101006.00;;;;5023669;28;20271;-68
2023/08/09 07:14:26;;;;;;;10.20;7.50;;;;;16.40;101019.00;;;;5019190;28;20232;-68
2023/08/09 07:17:13;;;;;;;12.03;8.00;;;;;16.40;101021.00;;;;5020728;28;20588;-68
2023/08/09 07:20:00;;;;;;;12.70;8.47;;;;;16.40;101028.00;;;;5024079;28;20229;-67
2023/08/09 07:22:47;;;;;;;13.23;8.93;;;;;16.50;101031.00;;;;5022836;28;20784;-68
2023/08/09 07:25:34;;;;;;;12.33;7.80;;;;;16.40;101027.00;;;;5024847;28;20265;-68
2023/08/09 07:28:20;;;;;;;12.43;8.40;;;;;16.50;101040.00;;;;5020739;28;20384;-68
2023/08/09 07:31:17;;;;;;;11.23;7.93;;;;;16.50;101045.00;;;;5025812;28;20323;-69
2023/08/09 07:34:05;;;;;;;9.97;7.27;;;;;16.60;101044.00;;;;5023893;28;20264;-68
2023/08/09 07:36:51;;;;;;;11.20;7.47;;;;;16.60;101054.00;;;;5017687;28;20240;-67
2023/08/09 07:39:38;;;;;;;14.80;7.27;;;;;16.70;101057.00;;;;5027207;28;20241;-67
2023/08/09 07:42:24;;;;;;;12.43;8.07;;;;;16.90;101046.00;;;;5026412;28;20369;-67
2023/08/09 07:45:12;;;;;;;9.30;6.87;;;;;17.20;101046.00;;;;5024422;28;20233;-67
2023/08/09 07:47:58;;;;;;;12.73;7.00;;;;;17.40;101052.00;;;;5019780;28;20284;-66
2023/08/09 07:50:46;;;;;;;11.47;6.17;;;;;17.50;101054.00;;;;5025987;28;20221;-66
2023/08/09 07:53:33;;;;;;;10.63;7.20;;;;;17.50;101057.00;;;;5025976;28;20296;-67
2023/08/09 07:56:19;;;;;;;10.40;7.73;;;;;17.30;101058.00;;;;5028297;28;20233;-66
2023/08/09 07:59:05;;;;;;;10.73;7.37;;;;;17.10;101065.00;;;;5027586;28;20311;-67
2023/08/09 08:01:52;;;;;;;11.17;6.77;;;;;17.00;101067.00;;;;5019803;28;20225;-67
2023/08/09 08:04:40;;;;;;;9.23;6.50;;;;;16.90;101071.00;;;;5025776;28;20332;-67
2023/08/09 08:07:30;;;;;;;7.90;6.17;;;;;17.00;101084.00;;;;5022657;28;20233;-69
2023/08/09 08:10:18;;;;;;;7.93;6.00;;;;;17.10;101080.00;;;;5025993;28;20230;-68
2023/08/09 08:13:04;;;;;;;9.07;5.60;;;;;17.20;101083.00;;;;5027979;28;20296;-69
2023/08/09 08:15:52;;;;;;;11.03;5.43;;;;;17.40;101088.00;;;;5033926;28;20245;-68
2023/08/09 08:18:39;;;;;;;8.97;5.80;;;;;17.30;101080.00;;;;5025697;28;20228;-68
2023/08/09 08:21:25;;;;;;;8.10;5.50;;;;;17.50;101090.00;;;;5020689;28;20238;-67
2023/08/09 08:24:13;;;;;;;9.67;5.20;;;;;17.60;101090.00;;;;5026404;28;21048;-69
2023/08/09 08:26:59;;;;;;;8.50;5.10;;;;;17.70;101086.00;;;;5024315;28;20222;-68
2023/08/09 08:29:45;;;;;;;7.13;5.10;;;;;17.90;101085.00;;;;5026799;28;20357;-68
2023/08/09 08:32:32;;;;;;;8.30;5.50;;;;;17.90;101076.00;;;;5021399;28;20234;-69
2023/08/09 08:35:20;;;;;;;7.63;5.10;;;;;18.00;101079.00;;;;5022825;28;20300;-69
2023/08/09 08:38:07;;;;;;;7.37;5.43;;;;;18.10;101082.00;;;;5027257;28;20237;-68
2023/08/09 08:40:55;;;;;;;7.67;5.10;;;;;18.10;101078.00;;;;5025838;28;20229;-68
2023/08/09 08:43:42;;;;;;;8.57;5.10;;;;;18.10;101077.00;;;;5021605;28;20305;-67
2023/08/09 08:46:29;;;;;;;7.60;5.00;;;;;18.00;101084.00;;;;5024419;28;20599;-67
2023/08/09 08:49:20;;;;;;;6.03;4.97;;;;;17.90;101074.00;;;;5024909;28;20720;-68
2023/08/09 08:52:12;;;;;;;6.07;4.70;;;;;17.80;101075.00;;;;5021022;28;20238;-67
2023/08/09 08:54:58;;;;;;;7.50;4.60;;;;;17.80;101080.00;;;;5022087;28;20246;-67
2023/08/09 08:57:47;;;;;;;5.83;4.63;;;;;18.00;101081.00;;;;5024579;28;20230;-67
2023/08/09 09:00:33;;;;;;;7.43;5.03;;;;;18.30;101085.00;;;;5026503;28;20234;-68
2023/08/09 09:03:20;;;;;;;5.10;4.53;;;;;18.30;101087.00;;;;5014871;28;20245;-66
2023/08/09 09:06:07;;;;;;;6.57;4.90;;;;;18.40;101093.00;;;;5019837;28;20233;-67
2023/08/09 09:08:55;;;;;;;5.50;4.67;;;;;18.50;101104.00;;;;5025305;28;20721;-65
2023/08/09 09:11:41;;;;;;;5.13;4.53;;;;;18.80;101099.00;;;;5013394;28;20601;-67
2023/08/09 09:14:29;;;;;;;7.17;4.60;;;;;19.00;101092.00;;;;5025330;28;20253;-66
2023/08/09 09:17:16;;;;;;;4.70;3.90;;;;;19.30;101099.00;;;;5023578;28;20662;-67
2023/08/09 09:20:03;;;;;;;7.77;4.40;;;;;19.30;101103.00;;;;5021370;28;20276;-67
2023/08/09 09:22:50;;;;;;;8.33;4.23;;;;;19.30;101099.00;;;;5025415;28;20365;-68
2023/08/09 09:25:38;;;;;;;6.37;3.37;;;;;19.40;101108.00;;;;5023019;28;20353;-68
2023/08/09 09:28:25;;;;;;;4.00;3.60;;;;;19.40;101112.00;;;;5020538;28;20296;-69
2023/08/09 09:31:13;;;;;;;4.60;3.83;;;;;19.40;101107.00;;;;5023019;28;20237;-70
2023/08/09 09:34:00;;;;;;;5.03;4.10;;;;;19.40;101109.00;;;;5024695;28;20230;-69
2023/08/09 09:36:49;;;;;;;5.00;3.13;;;;;19.50;101119.00;;;;5023371;28;20222;-69
2023/08/09 09:39:37;;;;;;;4.77;3.17;;;;;19.70;101114.00;;;;5026017;28;20231;-69
2023/08/09 09:42:33;;;;;;;5.73;2.97;;;;;19.80;101118.00;;;;5021048;28;20322;-65
2023/08/09 09:45:22;;;;;;;3.70;2.97;;;;;19.80;101117.00;;;;5022895;28;20229;-64
2023/08/09 09:48:17;;;;;;;5.37;3.13;;;;;20.00;101121.00;;;;5025643;28;20247;-66
2023/08/09 09:51:05;;;;;;;4.40;2.93;;;;;20.20;101122.00;;;;5023479;28;20240;-66
2023/08/09 09:53:51;;;;;;;3.53;2.63;;;;;20.10;101123.00;;;;5019608;28;20239;-65
2023/08/09 09:56:37;;;;;;;5.57;3.73;;;;;20.20;101136.00;;;;5016147;28;20224;-65
2023/08/09 09:59:25;;;;;;;3.97;2.73;;;;;19.90;101133.00;;;;5029045;28;20281;-64
2023/08/09 10:02:12;;;;;;;3.57;3.20;;;;;20.10;101138.00;;;;5021360;28;20242;-64
2023/08/09 10:05:02;;;;;;;3.70;2.60;;;;;20.40;101130.00;;;;5022041;28;20240;-65
2023/08/09 10:07:51;;;;;;;4.07;2.50;;;;;20.40;101137.00;;;;5024106;28;20350;-65
2023/08/09 10:10:41;;;;;;;4.33;2.90;;;;;20.80;101144.00;;;;5023683;28;20244;-65
2023/08/09 10:13:29;;;;;;;3.53;3.00;;;;;20.80;101141.00;;;;5023254;28;20243;-65
2023/08/09 10:16:17;;;;;;;4.10;2.50;;;;;21.00;101156.00;;;;5016685;28;20240;-65
2023/08/09 10:19:08;;;;;;;4.97;2.90;;;;;21.20;101147.00;;;;5022470;28;20309;-65
2023/08/09 10:21:57;;;;;;;2.73;2.53;;;;;21.20;101150.00;;;;5017110;28;20742;-63
2023/08/09 10:24:44;;;;;;;2.90;2.60;;;;;21.40;101162.00;;;;5022368;28;20236;-64
2023/08/09 10:27:46;;;;;;;4.77;2.50;;;;;21.30;101157.00;;;;5022856;28;20244;-66
2023/08/09 10:30:45;;;;;;;6.90;2.13;;;;;21.30;101156.00;;;;5021438;28;20279;-65
2023/08/09 10:33:32;;;;;;;6.03;2.47;;;;;21.50;101149.00;;;;5025041;28;20814;-65
2023/08/09 10:36:32;;;;;;;5.30;2.37;;;;;21.60;101153.00;;;;5023671;28;20231;-65
2023/08/09 10:39:21;;;;;;;7.27;2.40;;;;;21.80;101146.00;;;;5021581;28;20303;-66
2023/08/09 10:42:09;;;;;;;3.90;2.70;;;;;21.70;101153.00;;;;5019993;28;20241;-65
2023/08/09 10:45:04;;;;;;;2.70;2.50;;;;;21.60;101140.00;;;;5014646;28;20303;-66
2023/08/09 10:47:51;;;;;;;2.93;2.63;;;;;21.60;101145.00;;;;5024415;28;20237;-66
2023/08/09 10:50:37;;;;;;;4.13;2.60;;;;;21.60;101139.00;;;;5021025;28;20232;-66
2023/08/09 10:53:50;;;;;;;4.43;2.57;;;;;21.70;101149.00;;;;5016297;28;20326;-66
2023/08/09 10:56:47;;;;;;;6.33;3.20;;;;;21.60;101144.00;;;;5018861;28;20350;-66
2023/08/09 10:59:33;;;;;;;3.43;2.07;;;;;21.70;101143.00;;;;5024806;28;20225;-66
2023/08/09 11:02:20;;;;;;;3.13;2.30;;;;;21.70;101151.00;;;;5025068;28;20329;-66
2023/08/09 11:05:08;;;;;;;3.90;2.40;;;;;21.80;101141.00;;;;5024563;28;20229;-66
2023/08/09 11:07:57;;;;;;;4.27;2.87;;;;;21.80;101149.00;;;;5028015;28;20268;-66
2023/08/09 11:10:44;;;;;;;6.00;3.20;;;;;21.90;101155.00;;;;5023001;28;20236;-65
2023/08/09 11:13:35;;;;;;;5.80;3.57;;;;;21.80;101160.00;;;;5022763;28;20303;-65
2023/08/09 11:16:37;;;;;;;6.17;4.50;;;;;21.70;101166.00;;;;5026565;28;20229;-66
2023/08/09 11:19:23;;;;;;;6.33;4.53;;;;;21.70;101152.00;;;;5028264;28;20225;-66
2023/08/09 11:22:21;;;;;;;4.70;4.10;;;;;21.80;101167.00;;;;5026576;28;20630;-66
2023/08/09 11:25:08;;;;;;;6.23;4.20;;;;;21.80;101161.00;;;;5022842;28;20330;-65
2023/08/09 11:27:56;;;;;;;7.10;5.27;;;;;21.80;101162.00;;;;5027405;28;20240;-66
2023/08/09 11:30:52;;;;;;;6.13;4.93;;;;;21.90;101175.00;;;;5027976;28;20225;-66
2023/08/09 11:33:38;;;;;;;8.23;5.07;;;;;22.00;101164.00;;;;5028015;28;20252;-66
2023/08/09 11:36:28;;;;;;;8.03;4.70;;;;;22.00;101161.00;;;;5026699;28;20284;-66
2023/08/09 11:39:14;;;;;;;6.53;4.53;;;;;21.90;101169.00;;;;5027212;28;20240;-66
2023/08/09 11:42:00;;;;;;;7.00;4.70;;;;;21.90;101165.00;;;;5024977;28;20785;-66
2023/08/09 11:44:47;;;;;;;5.10;4.53;;;;;21.90;101171.00;;;;5023690;28;20308;-67
2023/08/09 11:47:35;;;;;;;5.90;4.60;;;;;21.80;101180.00;;;;5026040;28;20241;-66
2023/08/09 11:50:24;;;;;;;5.73;4.27;;;;;21.80;101181.00;;;;5025470;28;20369;-67
2023/08/09 11:53:11;;;;;;;6.57;4.60;;;;;21.60;101188.00;;;;5019431;28;20313;-66
2023/08/09 11:56:01;;;;;;;7.13;4.20;;;;;21.60;101191.00;;;;5025214;28;20230;-66
2023/08/09 11:58:49;;;;;;;6.50;4.53;;;;;21.70;101199.00;;;;5022569;28;20605;-65
2023/08/09 12:01:37;;;;;;;7.23;4.20;;;;;21.60;101196.00;;;;5019811;28;20232;-67
2023/08/09 12:04:27;;;;;;;8.23;4.47;;;;;21.50;101211.00;;;;5026503;28;20237;-66
2023/08/09 12:07:17;;;;;;;8.83;4.27;;;;;21.60;101211.00;;;;5024627;28;20734;-67
2023/08/09 12:10:10;;;;;;;11.90;4.20;;;;;21.60;101205.00;;;;5023444;28;20314;-66
2023/08/09 12:12:57;;;;;;;7.27;4.00;;;;;21.70;101211.00;;;;5021301;28;20757;-67
2023/08/09 12:15:43;;;;;;;6.47;3.93;;;;;21.70;101211.00;;;;5027963;28;20241;-66
2023/08/09 12:18:30;;;;;;;6.57;3.90;;;;;21.70;101212.00;;;;5022591;28;20676;-66
2023/08/09 12:21:18;;;;;;;5.77;3.73;;;;;21.80;101207.00;;;;5026349;28;20784;-66
2023/08/09 12:24:05;;;;;;;9.17;4.10;;;;;21.90;101208.00;;;;5025955;28;21171;-65
2023/08/09 12:26:51;;;;;;;11.27;4.00;;;;;22.10;101205.00;;;;5022941;28;20257;-65
2023/08/09 12:29:38;;;;;;;7.60;4.00;;;;;22.20;101207.00;;;;5024965;28;20360;-65
2023/08/09 12:32:24;;;;;;;5.87;3.93;;;;;22.30;101210.00;;;;5022814;28;20234;-65
2023/08/09 12:35:11;;;;;;;7.33;3.87;;;;;22.30;101209.00;;;;5022796;28;20230;-65
2023/08/09 12:37:59;;;;;;;5.70;3.73;;;;;22.50;101200.00;;;;5021744;28;20469;-64
2023/08/09 12:40:48;;;;;;;5.93;3.53;;;;;22.80;101213.00;;;;5016698;28;20253;-66
2023/08/09 12:43:34;;;;;;;4.80;3.17;;;;;22.70;101211.00;;;;5023647;28;22494;-67
2023/08/09 12:46:20;;;;;;;4.80;2.70;;;;;22.70;101224.00;;;;5026372;28;20571;-67
2023/08/09 12:49:07;;;;;;;3.90;2.70;;;;;22.80;101220.00;;;;5026437;28;20233;-67
2023/08/09 12:51:54;;;;;;;4.23;2.67;;;;;23.00;101217.00;;;;5026868;28;20303;-66
2023/08/09 12:54:42;;;;;;;5.23;3.20;;;;;23.30;101216.00;;;;5021046;28;20323;-67
2023/08/09 12:57:28;;;;;;;5.63;3.00;;;;;23.60;101215.00;;;;5025158;28;20827;-67
2023/08/09 13:00:16;;;;;;;4.27;2.60;;;;;23.70;101219.00;;;;5022903;28;20225;-67
2023/08/09 13:03:03;;;;;;;3.03;2.50;;;;;23.40;101218.00;;;;5022421;28;20236;-67
2023/08/09 13:05:51;;;;;;;4.20;2.50;;;;;23.30;101225.00;;;;5022138;28;20840;-66
2023/08/09 13:08:38;;;;;;;3.67;2.37;;;;;23.10;101222.00;;;;5024990;28;20228;-68
2023/08/09 13:11:25;;;;;;;5.17;2.30;;;;;22.90;101224.00;;;;5025976;28;20221;-67
2023/08/09 13:14:12;;;;;;;3.63;2.13;;;;;23.10;101217.00;;;;5028615;28;20248;-66
2023/08/09 13:16:58;;;;;;;7.53;2.40;;;;;23.40;101220.00;;;;5025999;28;20872;-67
2023/08/09 13:19:47;;;;;;;2.93;2.10;;;;;23.50;101214.00;;;;5021242;28;20225;-65
2023/08/09 13:22:34;;;;;;;2.10;1.83;;;;;23.90;101213.00;;;;5024367;28;20237;-67
2023/08/09 13:25:20;;;;;;;2.97;2.17;;;;;24.00;101217.00;;;;5018246;28;20300;-67
2023/08/09 13:28:09;;;;;;;3.73;2.07;;;;;24.00;101224.00;;;;5024411;28;20236;-66
2023/08/09 13:30:56;;;;;;;2.30;2.10;;;;;23.80;101217.00;;;;5025603;28;20432;-67
2023/08/09 13:33:42;;;;;;;4.43;2.10;;;;;23.80;101203.00;;;;5014678;28;20237;-67
2023/08/09 13:36:29;;;;;;;3.13;2.10;;;;;24.10;101207.00;;;;5025424;28;20749;-67
2023/08/09 13:39:15;;;;;;;2.40;2.13;;;;;24.50;101214.00;;;;5019759;28;20649;-67
2023/08/09 13:42:02;;;;;;;3.50;1.83;;;;;24.30;101212.00;;;;5026260;28;20304;-67
2023/08/09 13:44:50;;;;;;;2.23;2.00;;;;;23.80;101224.00;;;;5020411;28;20236;-67
2023/08/09 13:47:38;;;;;;;4.50;2.23;;;;;23.30;101220.00;;;;5023081;28;20225;-67